createdAt,value
2017-11-07T00:02:06.359Z,99.60
2017-11-07T00:04:32.602Z,99.60
2017-11-07T00:06:58.830Z,99.70
2017-11-07T00:09:25.128Z,99.70
2017-11-07T00:11:52.161Z,99.80
2017-11-07T00:14:18.474Z,99.80
2017-11-07T00:16:44.748Z,99.80
2017-11-07T00:19:11.011Z,99.90
2017-11-07T00:21:37.274Z,99.90
2017-11-07T00:24:03.531Z,99.90
2017-11-07T00:26:29.814Z,99.90
2017-11-07T00:28:56.081Z,99.90
2017-11-07T00:31:22.351Z,99.90
2017-11-07T00:33:48.637Z,99.90
2017-11-07T00:36:14.885Z,99.90
2017-11-07T00:38:41.138Z,99.90
2017-11-07T00:41:07.420Z,99.90
2017-11-07T00:43:34.423Z,99.90
2017-11-07T00:46:00.672Z,99.90
2017-11-07T00:48:26.922Z,99.90
2017-11-07T00:50:53.179Z,99.90
2017-11-07T00:53:19.439Z,99.90
2017-11-07T00:55:45.703Z,99.90
2017-11-07T00:58:11.956Z,99.90
2017-11-07T01:00:38.263Z,99.90
2017-11-07T01:03:04.553Z,99.90
2017-11-07T01:05:30.845Z,99.90
2017-11-07T01:07:57.140Z,99.90
2017-11-07T01:10:23.412Z,99.90
2017-11-07T01:12:49.676Z,99.90
2017-11-07T01:15:15.930Z,99.90
2017-11-07T01:17:42.173Z,99.90
2017-11-07T01:20:08.438Z,99.90
2017-11-07T01:22:34.683Z,99.90
2017-11-07T01:25:00.902Z,99.90
2017-11-07T01:27:27.187Z,99.90
2017-11-07T01:29:53.523Z,99.90
2017-11-07T01:32:20.478Z,99.90
2017-11-07T01:34:46.754Z,99.90
2017-11-07T01:37:14.029Z,99.90
2017-11-07T01:39:40.362Z,99.90
2017-11-07T01:42:06.634Z,99.90
2017-11-07T01:44:32.892Z,99.90
2017-11-07T01:46:59.901Z,99.90
2017-11-07T01:49:26.172Z,99.90
2017-11-07T01:51:52.422Z,99.90
2017-11-07T01:54:18.691Z,99.90
2017-11-07T01:56:44.974Z,99.90
2017-11-07T01:59:11.259Z,99.90
2017-11-07T02:01:37.573Z,99.90
2017-11-07T02:04:03.832Z,99.90
2017-11-07T02:06:30.040Z,99.90
2017-11-07T02:08:56.323Z,99.90
2017-11-07T02:11:22.904Z,99.90
2017-11-07T02:13:49.954Z,99.90
2017-11-07T02:18:50.029Z,99.90
2017-11-07T02:21:16.349Z,99.90
2017-11-07T02:23:42.688Z,99.90
2017-11-07T02:26:08.972Z,99.90
2017-11-07T02:28:36.022Z,99.90
2017-11-07T02:31:03.062Z,99.90
2017-11-07T02:33:29.452Z,99.90
2017-11-07T02:35:55.730Z,99.90
2017-11-07T02:38:22.789Z,99.90
2017-11-07T02:40:49.124Z,99.90
2017-11-07T02:43:15.414Z,99.90
2017-11-07T02:45:42.438Z,99.90
2017-11-07T02:48:08.704Z,99.90
2017-11-07T02:50:34.976Z,99.90
2017-11-07T02:53:01.275Z,99.90
2017-11-07T02:55:27.545Z,99.90
2017-11-07T02:57:53.818Z,99.90
2017-11-07T03:00:20.099Z,99.90
2017-11-07T03:02:46.343Z,99.90
2017-11-07T03:05:12.609Z,99.90
2017-11-07T03:07:38.854Z,99.90
2017-11-07T03:10:05.163Z,99.90
2017-11-07T03:12:31.422Z,99.90
2017-11-07T03:14:58.010Z,99.90
2017-11-07T03:17:24.983Z,99.90
2017-11-07T03:19:51.253Z,99.90
2017-11-07T03:22:17.515Z,99.90
2017-11-07T03:24:44.512Z,99.90
2017-11-07T03:27:10.803Z,99.90
2017-11-07T03:29:37.274Z,99.90
2017-11-07T03:32:03.540Z,99.90
2017-11-07T03:34:30.543Z,99.90
2017-11-07T03:36:56.780Z,99.90
2017-11-07T03:39:23.058Z,99.90
2017-11-07T03:41:49.246Z,99.90
2017-11-07T03:44:15.522Z,99.90
2017-11-07T03:46:41.793Z,99.90
2017-11-07T03:49:08.054Z,99.90
2017-11-07T03:51:35.050Z,99.90
2017-11-07T03:54:01.316Z,99.90
2017-11-07T03:56:28.351Z,99.90
2017-11-07T03:58:54.588Z,99.90
2017-11-07T04:01:21.583Z,99.90
2017-11-07T04:03:47.825Z,99.90
2017-11-07T04:06:14.092Z,99.90
2017-11-07T04:08:41.100Z,99.90
2017-11-07T04:11:07.323Z,99.90
2017-11-07T04:13:33.569Z,99.90
2017-11-07T04:15:59.818Z,99.90
2017-11-07T04:18:26.838Z,99.90
2017-11-07T04:20:53.131Z,99.90
2017-11-07T04:23:19.439Z,99.90
2017-11-07T04:25:45.684Z,99.90
2017-11-07T04:28:11.952Z,99.90
2017-11-07T04:30:38.226Z,99.90
2017-11-07T04:33:04.541Z,99.90
2017-11-07T04:35:30.797Z,99.80
2017-11-07T04:37:57.037Z,99.90
2017-11-07T04:40:23.281Z,98.90
2017-11-07T04:42:49.583Z,98.40
2017-11-07T04:45:15.837Z,98.10
2017-11-07T04:47:42.064Z,97.90
2017-11-07T04:50:08.326Z,98.00
2017-11-07T04:52:35.299Z,97.30
2017-11-07T04:55:01.572Z,97.20
2017-11-07T04:57:27.829Z,96.90
2017-11-07T04:59:54.115Z,97.10
2017-11-07T05:02:21.361Z,97.60
2017-11-07T05:04:47.611Z,98.00
2017-11-07T05:07:14.609Z,99.90
2017-11-07T05:09:40.854Z,99.90
2017-11-07T05:12:07.083Z,99.90
2017-11-07T05:14:33.303Z,99.20
2017-11-07T05:16:59.729Z,98.30
2017-11-07T05:19:25.961Z,96.80
2017-11-07T05:21:52.216Z,97.00
2017-11-07T05:24:18.474Z,96.70
2017-11-07T05:26:44.759Z,97.50
2017-11-07T05:29:11.029Z,97.50
2017-11-07T05:31:37.275Z,96.90
2017-11-07T05:34:03.545Z,96.50
2017-11-07T05:36:29.794Z,95.80
2017-11-07T05:38:56.761Z,94.90
2017-11-07T05:41:23.015Z,94.90
2017-11-07T05:43:50.016Z,95.60
2017-11-07T05:46:17.109Z,96.30
2017-11-07T05:48:43.407Z,96.30
2017-11-07T05:51:09.700Z,96.80
2017-11-07T05:53:35.978Z,97.10
2017-11-07T05:56:02.251Z,97.70
2017-11-07T05:58:28.521Z,97.90
2017-11-07T06:00:54.770Z,98.30
2017-11-07T06:03:23.768Z,98.50
2017-11-07T06:05:50.446Z,98.70
2017-11-07T06:08:17.690Z,99.20
2017-11-07T06:10:43.928Z,99.20
2017-11-07T06:13:10.936Z,99.80
2017-11-07T06:15:37.202Z,99.50
2017-11-07T06:18:04.173Z,99.90
2017-11-07T06:20:30.439Z,99.80
2017-11-07T06:22:56.660Z,99.90
2017-11-07T06:25:22.900Z,99.90
2017-11-07T06:27:49.215Z,99.90
2017-11-07T06:30:16.261Z,99.90
2017-11-07T06:32:42.561Z,99.90
2017-11-07T06:35:08.795Z,99.90
2017-11-07T06:37:35.063Z,99.90
2017-11-07T06:40:01.370Z,99.90
2017-11-07T06:42:27.639Z,99.90
2017-11-07T06:44:54.654Z,99.90
2017-11-07T06:47:20.895Z,99.90
2017-11-07T06:49:47.151Z,99.90
2017-11-07T06:52:13.373Z,99.90
2017-11-07T06:54:40.345Z,99.90
2017-11-07T06:57:06.635Z,99.90
2017-11-07T06:59:33.623Z,99.90
2017-11-07T07:01:59.920Z,99.90
2017-11-07T07:04:26.910Z,99.90
2017-11-07T07:06:53.145Z,99.90
2017-11-07T07:09:19.407Z,99.70
2017-11-07T07:11:46.389Z,99.40
2017-11-07T07:14:12.636Z,99.40
2017-11-07T07:16:38.867Z,98.90
2017-11-07T07:19:05.120Z,98.80
2017-11-07T07:21:31.367Z,98.90
2017-11-07T07:23:58.360Z,98.50
2017-11-07T07:26:24.601Z,98.50
2017-11-07T07:28:50.869Z,99.00
2017-11-07T07:31:17.179Z,98.90
2017-11-07T07:33:44.334Z,97.70
2017-11-07T07:36:10.606Z,97.70
2017-11-07T07:38:36.866Z,97.90
2017-11-07T07:41:03.110Z,98.00
2017-11-07T07:43:30.127Z,98.60
2017-11-07T07:45:56.387Z,98.60
2017-11-07T07:48:23.641Z,99.10
2017-11-07T07:50:50.614Z,99.40
2017-11-07T07:53:16.851Z,99.40
2017-11-07T07:55:43.100Z,99.50
2017-11-07T07:58:09.330Z,99.50
2017-11-07T08:00:35.581Z,99.20
2017-11-07T08:03:02.584Z,98.60
2017-11-07T08:05:29.166Z,98.60
2017-11-07T08:07:56.214Z,98.30
2017-11-07T08:10:23.200Z,98.30
2017-11-07T08:12:49.545Z,98.30
2017-11-07T08:15:15.851Z,98.50
2017-11-07T08:17:42.155Z,98.70
2017-11-07T08:20:09.180Z,98.90
2017-11-07T08:22:36.178Z,99.10
2017-11-07T08:25:02.434Z,99.00
2017-11-07T08:27:28.689Z,99.10
2017-11-07T08:29:55.721Z,99.50
2017-11-07T08:32:21.947Z,99.40
2017-11-07T08:34:48.955Z,99.70
2017-11-07T08:37:15.193Z,99.70
2017-11-07T08:39:41.766Z,99.80
2017-11-07T08:42:08.877Z,99.90
2017-11-07T08:44:35.142Z,99.90
2017-11-07T08:47:02.157Z,99.90
2017-11-07T08:49:28.447Z,99.90
2017-11-07T08:51:54.857Z,99.90
2017-11-07T08:54:21.165Z,99.90
2017-11-07T08:56:48.205Z,99.90
2017-11-07T08:59:14.453Z,99.90
2017-11-07T09:01:41.455Z,99.90
2017-11-07T09:04:07.713Z,99.90
2017-11-07T09:06:34.666Z,99.90
2017-11-07T09:09:01.708Z,99.90
2017-11-07T09:11:27.971Z,99.90
2017-11-07T09:13:54.259Z,99.90
2017-11-07T09:16:21.255Z,99.90
2017-11-07T09:18:47.536Z,99.90
2017-11-07T09:21:14.544Z,99.90
2017-11-07T09:23:40.765Z,99.90
2017-11-07T09:26:07.059Z,99.90
2017-11-07T09:28:33.329Z,99.90
2017-11-07T09:30:59.593Z,99.90
2017-11-07T09:33:26.614Z,99.90
2017-11-07T09:35:52.871Z,99.90
2017-11-07T09:38:19.928Z,99.90
2017-11-07T09:40:46.157Z,99.90
2017-11-07T09:43:12.434Z,99.90
2017-11-07T09:45:38.713Z,99.90
2017-11-07T09:48:04.988Z,99.90
2017-11-07T09:50:31.229Z,99.90
2017-11-07T09:52:57.445Z,99.90
2017-11-07T09:55:30.550Z,99.90
2017-11-07T09:57:57.547Z,99.80
2017-11-07T10:00:23.829Z,99.80
2017-11-07T10:02:50.832Z,99.60
2017-11-07T10:05:17.120Z,99.60
2017-11-07T10:07:43.345Z,99.60
2017-11-07T10:10:09.629Z,99.70
2017-11-07T10:12:35.899Z,99.50
2017-11-07T10:15:02.152Z,99.40
2017-11-07T10:17:28.444Z,99.40
2017-11-07T10:19:55.469Z,99.20
2017-11-07T10:22:21.757Z,99.20
2017-11-07T10:24:48.044Z,99.60
2017-11-07T10:27:15.062Z,99.10
2017-11-07T10:29:41.739Z,99.10
2017-11-07T10:32:08.074Z,98.60
2017-11-07T10:34:34.431Z,98.30
2017-11-07T10:37:00.732Z,98.20
2017-11-07T10:39:26.984Z,98.20
2017-11-07T10:41:53.248Z,98.30
2017-11-07T10:44:19.754Z,98.00
2017-11-07T10:46:46.018Z,97.70
2017-11-07T10:49:13.025Z,97.60
2017-11-07T10:51:39.299Z,97.50
2017-11-07T10:54:06.318Z,97.20
2017-11-07T10:56:32.604Z,97.20
2017-11-07T10:58:58.847Z,97.20
2017-11-07T11:01:25.124Z,97.60
2017-11-07T11:03:52.108Z,97.60
2017-11-07T11:06:20.732Z,97.70
2017-11-07T11:08:47.014Z,97.60
2017-11-07T11:11:13.280Z,97.70
2017-11-07T11:13:39.844Z,97.50
2017-11-07T11:16:06.818Z,97.40
2017-11-07T11:18:33.109Z,97.40
2017-11-07T11:21:00.133Z,97.60
2017-11-07T11:23:26.626Z,97.60
2017-11-07T11:25:52.892Z,97.60
2017-11-07T11:28:20.691Z,97.40
2017-11-07T11:30:47.674Z,97.50
2017-11-07T11:33:13.944Z,97.50
2017-11-07T11:35:40.933Z,97.50
2017-11-07T11:38:07.234Z,97.40
2017-11-07T11:40:34.248Z,97.40
2017-11-07T11:43:00.528Z,97.30
2017-11-07T11:45:26.844Z,97.30
2017-11-07T11:47:53.088Z,97.40
2017-11-07T11:50:19.792Z,97.60
2017-11-07T11:52:46.080Z,97.60
2017-11-07T11:55:12.349Z,97.40
2017-11-07T11:57:39.404Z,97.10
2017-11-07T12:00:05.701Z,97.10
2017-11-07T12:02:31.976Z,97.10
2017-11-07T12:04:58.241Z,97.20
2017-11-07T12:07:24.520Z,97.40
2017-11-07T12:09:50.820Z,97.40
2017-11-07T12:12:17.080Z,97.40
2017-11-07T12:14:43.322Z,97.40
2017-11-07T12:17:09.617Z,97.40
2017-11-07T12:19:36.619Z,97.70
2017-11-07T12:22:02.945Z,97.70
2017-11-07T12:24:29.234Z,97.70
2017-11-07T12:26:55.524Z,97.60
2017-11-07T12:29:21.866Z,97.60
2017-11-07T12:31:48.927Z,97.30
2017-11-07T12:34:15.222Z,97.20
2017-11-07T12:36:41.507Z,96.90
2017-11-07T12:39:07.819Z,96.90
2017-11-07T12:41:34.060Z,96.90
2017-11-07T12:44:00.373Z,96.80
2017-11-07T12:46:26.634Z,96.70
2017-11-07T12:48:52.879Z,96.90
2017-11-07T12:51:30.466Z,96.50
2017-11-07T12:53:57.454Z,96.70
2017-11-07T12:56:24.463Z,96.20
2017-11-07T12:58:50.888Z,96.20
2017-11-07T13:01:17.265Z,96.20
2017-11-07T13:03:43.561Z,96.30
2017-11-07T13:06:09.808Z,96.20
2017-11-07T13:08:36.863Z,95.80
2017-11-07T13:11:03.129Z,95.80
2017-11-07T13:13:29.719Z,95.80
2017-11-07T13:15:55.961Z,95.80
2017-11-07T13:18:22.208Z,95.90
2017-11-07T13:20:49.208Z,96.10
2017-11-07T13:23:16.186Z,96.20
2017-11-07T13:25:42.455Z,96.20
2017-11-07T13:28:08.713Z,96.20
2017-11-07T13:30:35.341Z,96.00
2017-11-07T13:33:02.390Z,95.80
2017-11-07T13:35:29.389Z,95.70
2017-11-07T13:37:55.681Z,95.60
2017-11-07T13:40:21.967Z,95.90
2017-11-07T13:42:48.249Z,95.80
2017-11-07T13:45:14.539Z,95.90
2017-11-07T13:47:40.804Z,96.10
2017-11-07T13:50:07.068Z,96.00
2017-11-07T13:52:33.321Z,96.00
2017-11-07T13:54:59.592Z,96.00
2017-11-07T13:57:25.836Z,96.00
2017-11-07T13:59:52.123Z,96.00
2017-11-07T14:02:18.409Z,96.10
2017-11-07T14:04:44.689Z,96.10
2017-11-07T14:07:10.930Z,96.00
2017-11-07T14:09:37.195Z,96.20
2017-11-07T14:12:03.764Z,96.20
2017-11-07T14:14:30.714Z,96.10
2017-11-07T14:16:56.943Z,96.10
2017-11-07T14:19:23.214Z,96.10
2017-11-07T14:21:49.466Z,96.30
2017-11-07T14:24:15.864Z,96.00
2017-11-07T14:26:42.125Z,96.00
2017-11-07T14:29:08.680Z,96.00
2017-11-07T14:31:35.691Z,95.80
2017-11-07T14:34:04.346Z,95.80
2017-11-07T14:36:30.633Z,95.80
2017-11-07T14:38:57.618Z,96.00
2017-11-07T14:41:30.977Z,96.00
2017-11-07T14:43:58.035Z,96.00
2017-11-07T14:46:24.264Z,96.00
2017-11-07T14:48:50.533Z,96.00
2017-11-07T14:51:16.789Z,96.00
2017-11-07T14:53:43.087Z,96.10
2017-11-07T14:56:09.328Z,96.20
2017-11-07T14:58:35.569Z,96.10
2017-11-07T15:01:01.829Z,96.10
2017-11-07T15:03:28.074Z,96.20
2017-11-07T15:05:54.344Z,96.40
2017-11-07T15:08:21.327Z,96.70
2017-11-07T15:10:47.587Z,96.60
2017-11-07T15:13:14.281Z,96.60
2017-11-07T15:15:40.534Z,96.70
2017-11-07T15:18:06.796Z,96.60
2017-11-07T15:20:33.113Z,96.80
2017-11-07T15:22:59.385Z,96.90
2017-11-07T15:25:26.665Z,97.00
2017-11-07T15:27:52.879Z,97.00
2017-11-07T15:30:19.157Z,97.10
2017-11-07T15:32:45.512Z,97.20
2017-11-07T15:35:12.497Z,97.20
2017-11-07T15:37:38.768Z,97.20
2017-11-07T15:40:05.071Z,97.30
2017-11-07T15:42:31.297Z,97.30
2017-11-07T15:44:57.545Z,97.40
2017-11-07T15:47:23.798Z,97.40
2017-11-07T15:49:50.827Z,97.50
2017-11-07T15:52:17.074Z,97.50
2017-11-07T15:54:44.059Z,97.60
2017-11-07T15:57:10.417Z,97.50
2017-11-07T15:59:36.703Z,97.60
2017-11-07T16:02:03.030Z,97.70
2017-11-07T16:04:29.277Z,97.60
2017-11-07T16:06:55.540Z,97.60
2017-11-07T16:09:22.092Z,97.80
2017-11-07T16:11:49.076Z,98.10
2017-11-07T16:14:15.336Z,98.10
2017-11-07T16:16:41.619Z,98.10
2017-11-07T16:19:07.862Z,98.10
2017-11-07T16:21:41.187Z,98.10
2017-11-07T16:24:07.478Z,98.30
2017-11-07T16:26:33.763Z,98.40
2017-11-07T16:29:00.766Z,98.50
2017-11-07T16:31:27.037Z,98.50
2017-11-07T16:33:54.100Z,98.50
2017-11-07T16:36:20.336Z,98.50
2017-11-07T16:38:46.615Z,98.40
2017-11-07T16:41:12.886Z,98.40
2017-11-07T16:43:39.120Z,98.40
2017-11-07T16:46:05.431Z,98.50
2017-11-07T16:48:31.716Z,98.50
2017-11-07T16:50:58.005Z,98.50
2017-11-07T16:53:24.275Z,98.60
2017-11-07T16:55:50.553Z,98.60
2017-11-07T16:58:16.835Z,98.50
2017-11-07T17:00:43.111Z,98.50
2017-11-07T17:03:09.385Z,98.60
2017-11-07T17:05:35.668Z,98.60
2017-11-07T17:08:01.984Z,98.60
2017-11-07T17:10:28.263Z,98.60
2017-11-07T17:12:54.537Z,98.70
2017-11-07T17:15:20.849Z,98.60
2017-11-07T17:17:47.867Z,98.70
2017-11-07T17:20:14.151Z,98.70
2017-11-07T17:22:40.405Z,98.80
2017-11-07T17:25:06.698Z,98.80
2017-11-07T17:27:32.995Z,98.70
2017-11-07T17:29:59.287Z,98.60
2017-11-07T17:32:25.625Z,98.60
2017-11-07T17:34:51.880Z,98.50
2017-11-07T17:37:18.225Z,98.60
2017-11-07T17:39:45.349Z,98.50
2017-11-07T17:42:11.628Z,98.50
2017-11-07T17:44:37.932Z,98.50
2017-11-07T17:47:05.009Z,98.50
2017-11-07T17:49:31.615Z,98.80
2017-11-07T17:51:57.879Z,98.60
2017-11-07T17:54:24.317Z,98.50
2017-11-07T17:56:50.669Z,98.60
2017-11-07T17:59:16.966Z,98.70
2017-11-07T18:01:43.281Z,98.70
2017-11-07T18:04:09.571Z,98.80
2017-11-07T18:06:36.616Z,99.00
2017-11-07T18:09:02.994Z,99.00
2017-11-07T18:11:29.288Z,99.10
2017-11-07T18:13:56.343Z,99.30
2017-11-07T18:16:22.635Z,99.30
2017-11-07T18:18:48.966Z,99.40
2017-11-07T18:21:15.276Z,99.40
2017-11-07T18:23:41.604Z,99.40
2017-11-07T18:26:07.997Z,99.50
2017-11-07T18:28:34.322Z,99.50
2017-11-07T18:31:00.635Z,99.50
2017-11-07T18:33:27.755Z,99.60
2017-11-07T18:35:54.047Z,99.60
2017-11-07T18:38:20.397Z,99.60
2017-11-07T18:40:46.703Z,99.70
2017-11-07T18:43:13.027Z,99.70
2017-11-07T18:45:39.358Z,99.70
2017-11-07T18:48:05.686Z,99.70
2017-11-07T18:50:32.049Z,99.70
2017-11-07T18:52:58.403Z,99.70
2017-11-07T18:55:25.816Z,99.70
2017-11-07T18:57:52.160Z,99.70
2017-11-07T19:00:18.540Z,99.70
2017-11-07T19:02:44.889Z,99.70
2017-11-07T19:05:11.252Z,99.70
2017-11-07T19:07:37.616Z,99.80
2017-11-07T19:10:04.758Z,99.80
2017-11-07T19:12:31.824Z,99.80
2017-11-07T19:14:58.188Z,99.80
2017-11-07T19:17:25.690Z,99.80
2017-11-07T19:19:53.046Z,99.70
2017-11-07T19:22:20.618Z,99.70
2017-11-07T19:24:48.241Z,99.80
2017-11-07T19:27:14.772Z,99.70
2017-11-07T19:29:42.436Z,99.80
2017-11-07T19:32:09.220Z,99.80
2017-11-07T19:34:35.578Z,99.80
2017-11-07T19:37:02.140Z,99.80
2017-11-07T19:39:29.635Z,99.80
2017-11-07T19:41:57.165Z,99.70
2017-11-07T19:44:27.542Z,99.70
2017-11-07T19:46:54.145Z,99.70
2017-11-07T19:49:21.608Z,99.70
2017-11-07T19:51:49.903Z,99.70
2017-11-07T19:54:25.865Z,99.60
2017-11-07T19:56:52.695Z,99.70
2017-11-07T19:59:21.108Z,99.90
2017-11-07T20:01:47.608Z,99.90
2017-11-07T20:04:14.007Z,99.90
2017-11-07T20:06:40.452Z,99.90
2017-11-07T20:09:06.811Z,99.90
2017-11-07T20:11:33.300Z,99.90
2017-11-07T20:13:59.610Z,99.80
2017-11-07T20:16:27.079Z,99.90
2017-11-07T20:18:53.438Z,99.90
2017-11-07T20:21:19.808Z,99.90
2017-11-07T20:23:46.161Z,99.90
2017-11-07T20:26:13.529Z,99.90
2017-11-07T20:28:39.898Z,99.90
2017-11-07T20:31:06.228Z,99.90
2017-11-07T20:33:33.798Z,99.90
2017-11-07T20:36:00.310Z,99.90
2017-11-07T20:38:26.621Z,99.90
2017-11-07T20:40:54.098Z,99.90
2017-11-07T20:43:21.336Z,99.90
2017-11-07T20:45:48.830Z,99.90
2017-11-07T20:48:16.208Z,99.80
2017-11-07T20:50:42.602Z,99.60
2017-11-07T20:53:08.955Z,99.30
2017-11-07T20:55:36.382Z,99.10
2017-11-07T20:58:03.112Z,99.10
2017-11-07T21:00:29.483Z,99.10
2017-11-07T21:03:01.807Z,98.70
2017-11-07T21:05:30.121Z,98.60
2017-11-07T21:07:58.073Z,98.60
2017-11-07T21:10:31.460Z,98.60
2017-11-07T21:12:58.803Z,98.70
2017-11-07T21:15:26.605Z,98.60
2017-11-07T21:17:53.052Z,98.50
2017-11-07T21:20:20.454Z,98.40
2017-11-07T21:22:46.910Z,98.40
2017-11-07T21:25:13.201Z,98.20
2017-11-07T21:27:39.533Z,98.20
2017-11-07T21:30:05.885Z,98.10
2017-11-07T21:32:33.372Z,98.10
2017-11-07T21:35:00.745Z,98.10
2017-11-07T21:37:27.034Z,98.20
2017-11-07T21:39:54.643Z,98.30
2017-11-07T21:42:22.961Z,98.00
2017-11-07T21:44:50.980Z,98.00
2017-11-07T21:47:18.712Z,98.20
2017-11-07T21:49:45.178Z,98.40
2017-11-07T21:52:11.537Z,98.50
2017-11-07T21:54:39.783Z,98.60
2017-11-07T21:57:08.314Z,98.70
2017-11-07T21:59:36.036Z,98.70
2017-11-07T22:02:02.526Z,98.90
2017-11-07T22:04:30.263Z,99.00
2017-11-07T22:06:58.303Z,99.10
2017-11-07T22:09:24.769Z,99.20
2017-11-07T22:11:56.202Z,99.30
2017-11-07T22:14:23.475Z,99.40
2017-11-07T22:16:53.957Z,99.40
2017-11-07T22:19:20.844Z,99.50
2017-11-07T22:21:49.029Z,99.60
2017-11-07T22:24:15.333Z,99.80
2017-11-07T22:26:42.658Z,99.90
2017-11-07T22:29:09.082Z,99.90
2017-11-07T22:31:36.839Z,99.90
2017-11-07T22:34:04.050Z,99.90
2017-11-07T22:36:31.338Z,99.90
2017-11-07T22:38:59.010Z,99.90
2017-11-07T22:41:26.761Z,99.90
2017-11-07T22:43:53.953Z,99.50
2017-11-07T22:46:20.205Z,99.50
2017-11-07T22:48:47.928Z,99.40
2017-11-07T22:51:14.378Z,99.40
2017-11-07T22:53:41.788Z,99.30
2017-11-07T22:56:08.991Z,99.10
2017-11-07T22:58:36.419Z,99.10
2017-11-07T23:01:02.879Z,99.00
2017-11-07T23:03:30.424Z,99.40
2017-11-07T23:05:59.809Z,98.90
2017-11-07T23:08:26.144Z,98.80
2017-11-07T23:10:53.128Z,98.90
2017-11-07T23:13:20.136Z,98.90
2017-11-07T23:15:46.394Z,98.90
2017-11-07T23:18:13.705Z,98.90
2017-11-07T23:20:39.936Z,98.90
2017-11-07T23:23:07.077Z,98.90
2017-11-07T23:25:34.604Z,99.00
2017-11-07T23:28:01.778Z,99.00
2017-11-07T23:30:28.031Z,99.00
2017-11-07T23:32:55.368Z,99.00
2017-11-07T23:35:22.346Z,98.90
2017-11-07T23:37:48.575Z,98.90
2017-11-07T23:40:16.058Z,98.80
2017-11-07T23:42:43.711Z,98.70
2017-11-07T23:45:10.112Z,98.60
2017-11-07T23:47:37.652Z,98.50
2017-11-07T23:50:05.402Z,98.30
2017-11-07T23:52:33.018Z,98.40
2017-11-07T23:55:00.118Z,98.30
2017-11-07T23:57:26.373Z,98.30
2017-11-07T23:59:53.359Z,98.50
